createdAt,value
2023-10-20T00:00:36.645Z,98781.94
2023-10-20T00:03:39.954Z,98815.47
2023-10-20T00:06:42.779Z,98784.16
2023-10-20T00:09:46.778Z,98789.59
2023-10-20T00:12:53.736Z,98817.94
2023-10-20T00:15:58.608Z,98813.34
2023-10-20T00:19:04.123Z,98824.78
2023-10-20T00:22:06.953Z,98818.47
2023-10-20T00:25:12.791Z,98782.31
2023-10-20T00:28:19.441Z,98771.78
2023-10-20T00:31:27.868Z,98786.19
2023-10-20T00:34:36.679Z,98760.47
2023-10-20T00:37:39.325Z,98772.19
2023-10-20T00:40:51.286Z,98793.44
2023-10-20T00:43:55.580Z,98790.09
2023-10-20T00:46:58.511Z,98766.38
2023-10-20T00:50:01.376Z,98773.91
2023-10-20T00:53:08.437Z,98763.88
2023-10-20T00:56:12.370Z,98723.28
2023-10-20T00:59:14.899Z,98756.44
2023-10-20T01:02:17.629Z,98744.03
2023-10-20T01:05:26.574Z,98749.56
2023-10-20T01:08:28.839Z,98742.09
2023-10-20T01:11:34.031Z,98746.03
2023-10-20T01:14:37.247Z,98728.38
2023-10-20T01:17:41.056Z,98708.78
2023-10-20T01:20:43.486Z,98723.56
2023-10-20T01:23:45.804Z,98735.38
2023-10-20T01:26:54.886Z,98742.78
2023-10-20T01:30:00.029Z,98726.63
2023-10-20T01:33:04.023Z,98721.81
2023-10-20T01:36:06.701Z,98685.44
2023-10-20T01:39:09.688Z,98684.31
2023-10-20T01:42:12.641Z,98659.63
2023-10-20T01:45:15.177Z,98655.94
2023-10-20T01:48:17.872Z,98672.25
2023-10-20T01:51:20.225Z,98654.59
2023-10-20T01:54:24.544Z,98643.81
2023-10-20T01:57:29.342Z,98650.84
2023-10-20T02:00:32.635Z,98653.16
2023-10-20T02:03:38.487Z,98661.63
2023-10-20T02:06:41.643Z,98668.47
2023-10-20T02:09:44.243Z,98657.28
2023-10-20T02:12:56.698Z,98630.63
2023-10-20T02:16:00.897Z,98647.34
2023-10-20T02:19:06.020Z,98639.03
2023-10-20T02:22:11.653Z,98649.44
2023-10-20T02:25:18.198Z,98652.97
2023-10-20T02:28:26.208Z,98633.22
2023-10-20T02:31:31.460Z,98618.59
2023-10-20T02:34:34.431Z,98617.19
2023-10-20T02:37:37.285Z,98648.31
2023-10-20T02:40:53.121Z,98624.94
2023-10-20T02:43:55.989Z,98630.09
2023-10-20T02:46:59.079Z,98619.22
2023-10-20T02:50:03.362Z,98640.53
2023-10-20T02:53:06.103Z,98635.34
2023-10-20T02:56:15.813Z,98627.09
2023-10-20T02:59:21.229Z,98623.13
2023-10-20T03:02:26.701Z,98626.53
2023-10-20T03:05:32.833Z,98602.78
2023-10-20T03:08:38.425Z,98591.47
2023-10-20T03:11:42.146Z,98636.22
2023-10-20T03:14:45.511Z,98627.84
2023-10-20T03:17:48.001Z,98623.56
2023-10-20T03:20:53.942Z,98608.38
2023-10-20T03:23:57.152Z,98643.81
2023-10-20T03:26:59.938Z,98629.63
2023-10-20T03:30:06.967Z,98653.63
2023-10-20T03:33:14.129Z,98616.34
2023-10-20T03:36:16.587Z,98631.78
2023-10-20T03:39:22.441Z,98622.50
2023-10-20T03:42:24.698Z,98640.13
2023-10-20T03:45:27.149Z,98635.91
2023-10-20T03:48:31.015Z,98621.72
2023-10-20T03:51:36.483Z,98621.16
2023-10-20T03:54:40.148Z,98633.38
2023-10-20T03:57:44.145Z,98641.63
2023-10-20T04:00:47.617Z,98614.31
2023-10-20T04:03:53.107Z,98626.94
2023-10-20T04:06:55.815Z,98591.28
2023-10-20T04:10:01.357Z,98615.06
2023-10-20T04:13:04.473Z,98610.94
2023-10-20T04:16:14.619Z,98589.56
2023-10-20T04:19:17.353Z,98618.59
2023-10-20T04:22:24.678Z,98621.66
2023-10-20T04:25:34.525Z,98599.56
2023-10-20T04:28:45.569Z,98581.75
2023-10-20T04:32:06.644Z,98608.41
2023-10-20T04:35:27.764Z,98612.63
2023-10-20T04:38:51.059Z,98596.19
2023-10-20T04:42:12.367Z,98599.81
2023-10-20T04:45:27.209Z,98611.28
2023-10-20T04:48:52.168Z,98579.72
2023-10-20T04:52:25.249Z,98610.78
2023-10-20T04:55:33.985Z,98615.22
2023-10-20T04:58:46.420Z,98599.44
2023-10-20T05:01:53.405Z,98596.91
2023-10-20T05:05:02.936Z,98594.84
2023-10-20T05:08:18.819Z,98591.09
2023-10-20T05:11:30.410Z,98609.13
2023-10-20T05:14:39.382Z,98591.28
2023-10-20T05:17:43.594Z,98615.88
2023-10-20T05:20:50.316Z,98603.16
2023-10-20T05:23:52.866Z,98609.25
2023-10-20T05:26:59.932Z,98615.91
2023-10-20T05:30:07.380Z,98617.75
2023-10-20T05:36:35.804Z,98601.75
2023-10-20T05:39:40.486Z,98613.53
2023-10-20T05:42:50.548Z,98576.81
2023-10-20T05:46:00.293Z,98580.84
2023-10-20T05:49:04.067Z,98590.69
2023-10-20T05:52:15.786Z,98623.13
2023-10-20T05:55:25.253Z,98609.44
2023-10-20T05:58:34.966Z,98616.66
2023-10-20T06:01:41.457Z,98615.06
2023-10-20T06:14:06.838Z,98594.53
2023-10-20T06:17:54.177Z,98598.75
2023-10-20T06:21:11.470Z,98591.97
2023-10-20T06:24:24.705Z,98609.94
2023-10-20T06:27:33.491Z,98614.97
2023-10-20T06:30:47.106Z,98592.22
2023-10-20T06:34:02.753Z,98598.63
2023-10-20T06:40:54.029Z,98605.69
2023-10-20T06:44:03.594Z,98598.41
2023-10-20T06:47:07.354Z,98597.81
2023-10-20T06:50:25.270Z,98602.81
2023-10-20T06:53:32.232Z,98620.41
2023-10-20T06:57:45.845Z,98586.38
2023-10-20T07:06:01.775Z,98595.53
2023-10-20T07:09:29.832Z,98574.75
2023-10-20T07:12:35.951Z,98603.72
2023-10-20T07:15:44.558Z,98590.00
2023-10-20T07:18:49.481Z,98612.28
2023-10-20T07:21:55.427Z,98582.56
2023-10-20T07:25:01.232Z,98611.34
2023-10-20T07:28:16.250Z,98598.53
2023-10-20T07:31:23.089Z,98591.09
2023-10-20T07:34:31.887Z,98611.97
2023-10-20T07:37:35.080Z,98585.53
2023-10-20T07:40:41.574Z,98608.22
2023-10-20T07:43:44.463Z,98586.84
2023-10-20T07:46:54.610Z,98591.13
2023-10-20T07:50:03.406Z,98594.09
2023-10-20T07:53:20.018Z,98583.69
2023-10-20T07:56:29.524Z,98581.94
2023-10-20T07:59:49.543Z,98603.34
2023-10-20T08:03:36.522Z,98606.84
2023-10-20T08:10:13.317Z,98579.34
2023-10-20T08:13:16.679Z,98590.84
2023-10-20T08:16:22.888Z,98585.81
2023-10-20T08:19:36.683Z,98594.06
2023-10-20T08:22:40.058Z,98587.56
2023-10-20T08:25:43.090Z,98574.53
2023-10-20T08:28:46.191Z,98581.44
2023-10-20T08:31:49.626Z,98558.97
2023-10-20T08:34:52.720Z,98587.25
2023-10-20T08:37:58.997Z,98591.72
2023-10-20T08:41:15.334Z,98600.06
2023-10-20T08:44:21.573Z,98581.59
2023-10-20T08:47:49.616Z,98596.06
2023-10-20T08:51:38.379Z,98605.59
2023-10-20T08:55:22.499Z,98584.19
2023-10-20T08:58:41.923Z,98591.34
2023-10-20T09:05:59.020Z,98583.31
2023-10-20T09:09:23.756Z,98597.13
2023-10-20T09:12:35.131Z,98604.72
2023-10-20T09:15:41.722Z,98574.91
2023-10-20T09:19:14.845Z,98574.44
2023-10-20T09:27:07.437Z,98574.09
2023-10-20T09:30:14.803Z,98584.28
2023-10-20T09:33:19.443Z,98564.69
2023-10-20T09:36:34.016Z,98579.59
2023-10-20T09:39:51.484Z,98586.03
2023-10-20T09:43:38.523Z,98581.84
2023-10-20T09:47:04.485Z,98570.03
2023-10-20T09:50:07.406Z,98573.44
2023-10-20T09:54:31.139Z,98568.75
2023-10-20T09:57:34.860Z,98540.97
2023-10-20T10:18:17.661Z,98532.78
2023-10-20T10:21:31.410Z,98514.22
2023-10-20T10:24:43.585Z,98547.13
2023-10-20T10:27:46.579Z,98561.75
2023-10-20T10:30:55.953Z,98547.97
2023-10-20T10:34:03.197Z,98551.41
2023-10-20T10:37:10.390Z,98554.31
2023-10-20T10:40:20.416Z,98525.34
2023-10-20T10:43:26.074Z,98527.88
2023-10-20T10:46:42.883Z,98537.34
2023-10-20T10:49:56.513Z,98527.50
2023-10-20T10:53:03.344Z,98509.84
2023-10-20T10:56:10.792Z,98526.50
2023-10-20T10:59:16.275Z,98524.84
2023-10-20T11:02:19.467Z,98518.22
2023-10-20T11:05:28.717Z,98498.81
2023-10-20T11:08:32.881Z,98503.59
2023-10-20T11:11:56.902Z,98497.22
2023-10-20T11:23:41.409Z,98430.75
2023-10-20T11:27:07.014Z,98446.75
2023-10-20T11:30:25.081Z,98422.66
2023-10-20T11:33:31.000Z,98441.50
2023-10-20T11:36:38.592Z,98425.41
2023-10-20T11:39:41.159Z,98424.59
2023-10-20T11:42:56.596Z,98385.69
2023-10-20T11:46:08.364Z,98432.03
2023-10-20T11:49:24.755Z,98431.78
2023-10-20T11:52:55.080Z,98434.56
2023-10-20T11:56:00.258Z,98421.31
2023-10-20T11:59:05.627Z,98419.50
2023-10-20T12:02:09.301Z,98413.91
2023-10-20T12:05:15.952Z,98402.03
2023-10-20T12:08:20.285Z,98414.09
2023-10-20T12:11:27.604Z,98417.06
2023-10-20T12:14:35.954Z,98422.16
2023-10-20T12:22:08.541Z,98432.34
2023-10-20T12:25:15.021Z,98424.34
2023-10-20T12:28:22.869Z,98431.47
2023-10-20T12:31:27.869Z,98421.47
2023-10-20T12:34:33.189Z,98426.22
2023-10-20T12:37:36.230Z,98421.84
2023-10-20T12:40:41.707Z,98416.97
2023-10-20T12:43:48.616Z,98432.47
2023-10-20T12:46:52.057Z,98395.91
2023-10-20T12:49:58.642Z,98407.41
2023-10-20T12:53:04.180Z,98405.66
2023-10-20T12:56:09.441Z,98393.81
2023-10-20T12:59:12.656Z,98391.84
2023-10-20T13:02:15.236Z,98392.44
2023-10-20T13:05:19.248Z,98387.69
2023-10-20T13:08:21.707Z,98384.03
2023-10-20T13:11:24.876Z,98373.56
2023-10-20T13:14:28.089Z,98361.59
2023-10-20T13:17:32.137Z,98374.22
2023-10-20T13:20:36.302Z,98356.47
2023-10-20T13:23:39.263Z,98367.88
2023-10-20T13:26:41.703Z,98355.13
2023-10-20T13:29:45.238Z,98358.22
2023-10-20T13:32:50.223Z,98361.13
2023-10-20T13:35:53.277Z,98369.81
2023-10-20T13:38:58.288Z,98377.03
2023-10-20T13:42:03.703Z,98375.34
2023-10-20T13:45:09.311Z,98386.63
2023-10-20T13:48:11.575Z,98373.13
2023-10-20T13:51:14.848Z,98376.22
2023-10-20T13:54:20.798Z,98372.34
2023-10-20T13:57:26.594Z,98381.25
2023-10-20T14:00:31.273Z,98382.97
2023-10-20T14:03:36.754Z,98388.84
2023-10-20T14:06:39.391Z,98394.88
2023-10-20T14:09:42.261Z,98389.22
2023-10-20T14:12:48.058Z,98391.81
2023-10-20T14:15:53.475Z,98389.50
2023-10-20T14:18:56.726Z,98378.47
2023-10-20T14:21:59.171Z,98386.22
2023-10-20T14:25:01.653Z,98384.00
2023-10-20T14:28:07.264Z,98371.91
2023-10-20T14:31:09.967Z,98372.59
2023-10-20T14:34:12.391Z,98376.16
2023-10-20T14:37:14.450Z,98384.16
2023-10-20T14:40:16.801Z,98397.78
2023-10-20T14:43:19.667Z,98397.41
2023-10-20T14:46:23.113Z,98398.59
2023-10-20T14:49:25.961Z,98412.81
2023-10-20T14:52:30.834Z,98406.78
2023-10-20T14:55:37.795Z,98407.72
2023-10-20T14:58:41.696Z,98407.06
2023-10-20T15:01:46.569Z,98408.50
2023-10-20T15:04:52.155Z,98401.47
2023-10-20T15:07:54.820Z,98411.75
2023-10-20T15:10:57.381Z,98413.88
2023-10-20T15:14:01.889Z,98407.41
2023-10-20T15:17:07.890Z,98418.00
2023-10-20T15:20:11.337Z,98404.84
2023-10-20T15:23:18.299Z,98429.78
2023-10-20T15:26:23.544Z,98406.06
2023-10-20T15:29:27.249Z,98397.78
2023-10-20T15:32:30.031Z,98405.72
2023-10-20T15:35:35.398Z,98423.03
2023-10-20T15:38:40.352Z,98382.16
2023-10-20T15:41:45.789Z,98428.94
2023-10-20T15:44:48.726Z,98394.84
2023-10-20T15:47:54.894Z,98388.84
2023-10-20T15:50:57.207Z,98414.91
2023-10-20T15:54:00.097Z,98415.47
2023-10-20T15:57:03.458Z,98416.88
2023-10-20T16:00:06.351Z,98442.63
2023-10-20T16:03:08.574Z,98436.63
2023-10-20T16:06:14.014Z,98425.69
2023-10-20T16:09:19.601Z,98440.13
2023-10-20T16:12:22.303Z,98447.16
2023-10-20T16:15:24.972Z,98456.28
2023-10-20T16:18:27.383Z,98457.19
2023-10-20T16:21:29.724Z,98442.44
2023-10-20T16:24:31.836Z,98450.53
2023-10-20T16:27:34.096Z,98446.13
2023-10-20T16:30:37.010Z,98463.38
2023-10-20T16:33:39.644Z,98464.16
2023-10-20T16:36:41.934Z,98468.25
2023-10-20T16:39:45.186Z,98470.75
2023-10-20T16:42:48.242Z,98477.13
2023-10-20T16:45:51.693Z,98482.47
2023-10-20T16:48:55.381Z,98487.31
2023-10-20T16:51:57.872Z,98486.59
2023-10-20T16:55:00.488Z,98476.03
2023-10-20T16:58:02.794Z,98496.47
2023-10-20T17:01:07.881Z,98500.78
2023-10-20T17:04:10.592Z,98477.78
2023-10-20T17:07:13.172Z,98498.47
2023-10-20T17:10:16.131Z,98493.47
2023-10-20T17:13:18.838Z,98500.38
2023-10-20T17:16:21.195Z,98499.34
2023-10-20T17:19:23.530Z,98497.72
2023-10-20T17:22:25.451Z,98513.09
2023-10-20T17:25:27.527Z,98510.72
2023-10-20T17:28:32.154Z,98510.44
2023-10-20T17:31:34.686Z,98514.44
2023-10-20T17:34:38.707Z,98514.97
2023-10-20T17:37:41.935Z,98509.69
2023-10-20T17:40:45.641Z,98515.78
2023-10-20T17:43:49.698Z,98513.72
2023-10-20T17:46:54.632Z,98516.38
2023-10-20T17:49:57.080Z,98505.78
2023-10-20T17:53:01.669Z,98512.16
2023-10-20T17:56:07.396Z,98514.00
2023-10-20T17:59:09.643Z,98510.28
2023-10-20T18:02:13.779Z,98518.50
2023-10-20T18:05:16.414Z,98505.81
2023-10-20T18:08:18.809Z,98519.06
2023-10-20T18:11:22.866Z,98515.88
2023-10-20T18:14:26.031Z,98523.81
2023-10-20T18:17:28.773Z,98527.03
2023-10-20T18:20:31.570Z,98518.75
2023-10-20T18:23:36.361Z,98524.88
2023-10-20T18:26:39.489Z,98524.34
2023-10-20T18:29:43.687Z,98537.09
2023-10-20T18:32:47.063Z,98528.59
2023-10-20T18:35:50.345Z,98538.16
2023-10-20T18:38:54.157Z,98544.50
2023-10-20T18:41:56.393Z,98549.81
2023-10-20T18:45:00.397Z,98553.28
2023-10-20T18:48:03.312Z,98551.97
2023-10-20T18:51:07.896Z,98547.97
2023-10-20T18:54:14.081Z,98555.41
2023-10-20T18:57:16.354Z,98553.22
2023-10-20T19:00:19.117Z,98550.34
2023-10-20T19:03:24.549Z,98559.34
2023-10-20T19:06:27.784Z,98552.97
2023-10-20T19:09:30.885Z,98559.38
2023-10-20T19:12:34.417Z,98566.53
2023-10-20T19:15:39.567Z,98570.53
2023-10-20T19:18:44.583Z,98570.53
2023-10-20T19:21:47.218Z,98579.56
2023-10-20T19:24:50.000Z,98583.75
2023-10-20T19:27:53.563Z,98583.75
2023-10-20T19:31:01.619Z,98591.16
2023-10-20T19:34:06.231Z,98582.41
2023-10-20T19:37:10.654Z,98581.09
2023-10-20T19:40:13.153Z,98577.91
2023-10-20T19:43:15.984Z,98572.59
2023-10-20T19:46:18.409Z,98573.13
2023-10-20T19:49:20.847Z,98576.81
2023-10-20T19:52:24.139Z,98587.94
2023-10-20T19:55:26.697Z,98607.03
2023-10-20T19:58:29.158Z,98609.13
2023-10-20T20:01:32.889Z,98626.34
2023-10-20T20:04:36.048Z,98624.47
2023-10-20T20:07:38.488Z,98630.03
2023-10-20T20:10:49.910Z,98641.16
2023-10-20T20:13:53.438Z,98630.03
2023-10-20T20:16:57.786Z,98640.63
2023-10-20T20:20:05.934Z,98641.41
2023-10-20T20:23:08.196Z,98642.97
2023-10-20T20:26:10.534Z,98648.78
2023-10-20T20:29:12.588Z,98657.78
2023-10-20T20:32:16.286Z,98654.81
2023-10-20T20:35:18.952Z,98648.16
2023-10-20T20:38:21.587Z,98657.91
2023-10-20T20:41:28.592Z,98647.81
2023-10-20T20:44:35.515Z,98650.81
2023-10-20T20:47:38.272Z,98659.81
2023-10-20T20:50:43.644Z,98650.97
2023-10-20T20:53:54.202Z,98658.97
2023-10-20T20:56:58.313Z,98631.03
2023-10-20T21:00:03.094Z,98660.56
2023-10-20T21:03:05.704Z,98671.94
2023-10-20T21:06:10.662Z,98683.00
2023-10-20T21:09:14.272Z,98673.94
2023-10-20T21:12:19.964Z,98675.53
2023-10-20T21:15:22.354Z,98681.31
2023-10-20T21:18:24.589Z,98692.41
2023-10-20T21:21:28.382Z,98686.94
2023-10-20T21:24:30.718Z,98683.72
2023-10-20T21:27:33.189Z,98682.13
2023-10-20T21:30:38.172Z,98683.41
2023-10-20T21:33:40.933Z,98680.69
2023-10-20T21:36:44.049Z,98679.31
2023-10-20T21:39:47.823Z,98678.72
2023-10-20T21:42:50.072Z,98675.84
2023-10-20T21:45:59.109Z,98678.97
2023-10-20T21:49:02.253Z,98684.81
2023-10-20T21:52:05.038Z,98682.19
2023-10-20T21:55:10.489Z,98691.72
2023-10-20T21:58:13.461Z,98688.22
2023-10-20T22:01:20.095Z,98692.47
2023-10-20T22:04:23.310Z,98686.59
2023-10-20T22:07:26.652Z,98686.28
2023-10-20T22:10:29.364Z,98701.09
2023-10-20T22:13:32.016Z,98706.69
2023-10-20T22:16:35.297Z,98697.38
2023-10-20T22:19:37.579Z,98704.81
2023-10-20T22:22:39.776Z,98704.25
2023-10-20T22:25:42.283Z,98680.53
2023-10-20T22:28:46.657Z,98677.06
2023-10-20T22:31:49.721Z,98686.34
2023-10-20T22:34:52.404Z,98705.75
2023-10-20T22:37:54.980Z,98695.09
2023-10-20T22:40:58.027Z,98702.47
2023-10-20T22:44:00.902Z,98710.50
2023-10-20T22:47:03.361Z,98698.91
2023-10-20T22:50:08.726Z,98698.91
2023-10-20T22:53:13.529Z,98702.31
2023-10-20T22:56:16.361Z,98705.22
2023-10-20T22:59:18.938Z,98702.47
2023-10-20T23:02:22.999Z,98707.31
2023-10-20T23:05:25.433Z,98707.75
2023-10-20T23:08:28.698Z,98710.41
2023-10-20T23:11:30.711Z,98701.41
2023-10-20T23:14:32.794Z,98711.84
2023-10-20T23:17:35.091Z,98721.38
2023-10-20T23:20:37.359Z,98711.84
2023-10-20T23:23:39.482Z,98710.56
2023-10-20T23:26:42.700Z,98716.66
2023-10-20T23:29:44.720Z,98712.97
2023-10-20T23:32:47.421Z,98709.34
2023-10-20T23:35:50.484Z,98716.25
2023-10-20T23:38:53.011Z,98709.34
2023-10-20T23:41:56.470Z,98718.88
2023-10-20T23:44:58.923Z,98726.53
2023-10-20T23:48:01.766Z,98723.84
2023-10-20T23:51:05.354Z,98723.06
2023-10-20T23:54:08.580Z,98731.00
2023-10-20T23:57:16.188Z,98725.88
